Česky Dansk Deutsch English Español Suomi Français Magyar Italiano Nederlands norsk Polski Português svenska Türkçe

 

Het Weer

Solwezi (Zambia)

06:00, 12 November 2013 (GMT)

NWNNE
WE
SWSSE
Home            
Solwezi Lubumbashi-Luano Kasempa Kolwezi Mwinilunga Ndola Kabompo Mansa Kaoma Lusaka City Airport Kabwe Zambezi Kawambwa Kamina / Base Lusaka Internationalairport Serenje Mongu Choma Senanga Mpika Kariba Manono Kasama

Om een weerknop op uw website of weblog te plaatsen, copieer onderstaande code en plak die in uw pagina. In het eerste vakje staat HTML-code, in het tweede vakje UBB-code.


Add to Google

Details

Wind speed:1 bf, 3 kn, 1.5 m/s, 3.5 miles/h, 5.6 km/h
Wind direction:E, 080°
Visibility:Greater than 10000 m, 10 km, 32800 ft, 6.2 miles
Clouds:CAVOC
Temperature:23°C, 73°F
Gefühlte Temperatur:24°C, 75°F
Dew-point:17°C, 63°F
Atmospheric pressure:1019 hPa, 764.3 mmHg, 30.09 inHg, 1.006 atm
Relative humidity:69.0 %
METAR:FLSW 120600Z 08003KT CAVOK 23/17 Q1019

Snelkoppelingen

Actuele weersinformatie van de hele wereld. Voeg locaties toe met het plus (+) symbool. Deze snelkoppelingen kunnen worden toegevoegd aan Google.

Lid van de Technetium groep

website free tracking
StatCounter NetStat W3C Validator

28-11-2020 10:55:45
astro.technetium.be money.technetium.be phote.technetium.be tafeltennistafel.technetium.be www.ligfiets.net